sensor_id;sensor_type;location;lat;lon;timestamp;P1;durP1;ratioP1;P2;durP2;ratioP2
80494;SDS011;69819;48.798;11.770;2023-05-29T00:00:19;5.43;;;3.80;;
80494;SDS011;69819;48.798;11.770;2023-05-29T00:02:46;5.95;;;3.65;;
80494;SDS011;69819;48.798;11.770;2023-05-29T00:05:15;6.57;;;3.63;;
80494;SDS011;69819;48.798;11.770;2023-05-29T00:07:42;4.85;;;3.45;;
80494;SDS011;69819;48.798;11.770;2023-05-29T00:10:09;6.75;;;3.85;;
80494;SDS011;69819;48.798;11.770;2023-05-29T00:12:37;7.20;;;4.10;;
80494;SDS011;69819;48.798;11.770;2023-05-29T00:15:03;7.15;;;3.65;;
80494;SDS011;69819;48.798;11.770;2023-05-29T00:17:30;5.07;;;3.35;;
80494;SDS011;69819;48.798;11.770;2023-05-29T00:19:57;6.57;;;3.70;;
80494;SDS011;69819;48.798;11.770;2023-05-29T00:22:24;5.57;;;3.70;;
80494;SDS011;69819;48.798;11.770;2023-05-29T00:24:52;4.80;;;3.45;;
80494;SDS011;69819;48.798;11.770;2023-05-29T00:27:18;4.63;;;3.85;;
80494;SDS011;69819;48.798;11.770;2023-05-29T00:29:45;6.00;;;3.85;;
80494;SDS011;69819;48.798;11.770;2023-05-29T00:32:11;5.50;;;3.35;;
80494;SDS011;69819;48.798;11.770;2023-05-29T00:34:37;5.53;;;3.88;;
80494;SDS011;69819;48.798;11.770;2023-05-29T00:37:03;5.47;;;3.58;;
80494;SDS011;69819;48.798;11.770;2023-05-29T00:39:29;6.75;;;3.70;;
80494;SDS011;69819;48.798;11.770;2023-05-29T00:41:55;5.13;;;3.35;;
80494;SDS011;69819;48.798;11.770;2023-05-29T00:44:21;6.97;;;3.75;;
80494;SDS011;69819;48.798;11.770;2023-05-29T00:46:48;6.18;;;3.40;;
80494;SDS011;69819;48.798;11.770;2023-05-29T00:49:18;6.65;;;3.78;;
80494;SDS011;69819;48.798;11.770;2023-05-29T00:51:46;6.70;;;3.38;;
80494;SDS011;69819;48.798;11.770;2023-05-29T00:54:17;4.35;;;3.20;;
80494;SDS011;69819;48.798;11.770;2023-05-29T00:56:53;6.47;;;3.13;;
80494;SDS011;69819;48.798;11.770;2023-05-29T00:59:20;5.65;;;3.58;;
80494;SDS011;69819;48.798;11.770;2023-05-29T01:01:51;5.78;;;3.80;;
80494;SDS011;69819;48.798;11.770;2023-05-29T01:04:19;5.22;;;3.40;;
80494;SDS011;69819;48.798;11.770;2023-05-29T01:06:46;5.10;;;3.47;;
80494;SDS011;69819;48.798;11.770;2023-05-29T01:09:12;6.60;;;3.72;;
80494;SDS011;69819;48.798;11.770;2023-05-29T01:17:34;8.80;;;3.85;;
80494;SDS011;69819;48.798;11.770;2023-05-29T01:28:51;4.25;;;3.15;;
80494;SDS011;69819;48.798;11.770;2023-05-29T01:31:23;4.80;;;3.28;;
80494;SDS011;69819;48.798;11.770;2023-05-29T01:33:57;6.10;;;3.22;;
80494;SDS011;69819;48.798;11.770;2023-05-29T01:36:27;4.70;;;3.35;;
80494;SDS011;69819;48.798;11.770;2023-05-29T01:38:54;4.75;;;3.45;;
80494;SDS011;69819;48.798;11.770;2023-05-29T01:41:22;4.95;;;3.38;;
80494;SDS011;69819;48.798;11.770;2023-05-29T01:43:49;7.30;;;3.70;;
80494;SDS011;69819;48.798;11.770;2023-05-29T01:46:16;4.47;;;3.45;;
80494;SDS011;69819;48.798;11.770;2023-05-29T01:48:43;6.20;;;3.35;;
80494;SDS011;69819;48.798;11.770;2023-05-29T01:51:10;7.40;;;3.78;;
80494;SDS011;69819;48.798;11.770;2023-05-29T01:53:38;4.82;;;3.35;;
80494;SDS011;69819;48.798;11.770;2023-05-29T01:56:05;6.15;;;3.33;;
80494;SDS011;69819;48.798;11.770;2023-05-29T01:58:33;4.72;;;3.63;;
80494;SDS011;69819;48.798;11.770;2023-05-29T02:01:01;5.68;;;3.20;;
80494;SDS011;69819;48.798;11.770;2023-05-29T02:03:31;6.82;;;3.53;;
80494;SDS011;69819;48.798;11.770;2023-05-29T02:05:58;5.60;;;3.50;;
80494;SDS011;69819;48.798;11.770;2023-05-29T02:08:25;4.95;;;3.00;;
80494;SDS011;69819;48.798;11.770;2023-05-29T02:10:51;5.07;;;3.60;;
80494;SDS011;69819;48.798;11.770;2023-05-29T02:13:18;5.93;;;3.65;;
80494;SDS011;69819;48.798;11.770;2023-05-29T02:15:44;4.88;;;3.38;;
80494;SDS011;69819;48.798;11.770;2023-05-29T02:18:10;4.57;;;3.58;;
80494;SDS011;69819;48.798;11.770;2023-05-29T02:20:42;8.00;;;3.72;;
80494;SDS011;69819;48.798;11.770;2023-05-29T02:23:08;4.70;;;3.17;;
80494;SDS011;69819;48.798;11.770;2023-05-29T02:25:34;4.47;;;3.30;;
80494;SDS011;69819;48.798;11.770;2023-05-29T02:28:01;5.20;;;3.40;;
80494;SDS011;69819;48.798;11.770;2023-05-29T02:30:28;6.50;;;3.65;;
80494;SDS011;69819;48.798;11.770;2023-05-29T02:32:54;5.90;;;3.38;;
80494;SDS011;69819;48.798;11.770;2023-05-29T02:35:20;6.15;;;3.10;;
80494;SDS011;69819;48.798;11.770;2023-05-29T02:37:48;5.38;;;3.08;;
80494;SDS011;69819;48.798;11.770;2023-05-29T02:40:15;6.95;;;3.53;;
80494;SDS011;69819;48.798;11.770;2023-05-29T02:42:41;7.20;;;3.17;;
80494;SDS011;69819;48.798;11.770;2023-05-29T02:45:07;4.47;;;3.08;;
80494;SDS011;69819;48.798;11.770;2023-05-29T02:47:34;4.13;;;2.88;;
80494;SDS011;69819;48.798;11.770;2023-05-29T02:50:00;5.70;;;3.25;;
80494;SDS011;69819;48.798;11.770;2023-05-29T02:52:27;7.70;;;3.67;;
80494;SDS011;69819;48.798;11.770;2023-05-29T02:54:55;6.03;;;3.25;;
80494;SDS011;69819;48.798;11.770;2023-05-29T02:57:21;6.25;;;3.70;;
80494;SDS011;69819;48.798;11.770;2023-05-29T02:59:48;5.00;;;3.13;;
80494;SDS011;69819;48.798;11.770;2023-05-29T03:02:14;6.07;;;3.25;;
80494;SDS011;69819;48.798;11.770;2023-05-29T03:04:40;5.57;;;3.30;;
80494;SDS011;69819;48.798;11.770;2023-05-29T03:07:05;5.88;;;3.45;;
80494;SDS011;69819;48.798;11.770;2023-05-29T03:09:31;5.00;;;3.35;;
80494;SDS011;69819;48.798;11.770;2023-05-29T03:11:58;7.90;;;3.30;;
80494;SDS011;69819;48.798;11.770;2023-05-29T03:14:26;4.70;;;3.45;;
80494;SDS011;69819;48.798;11.770;2023-05-29T03:16:52;4.40;;;3.35;;
80494;SDS011;69819;48.798;11.770;2023-05-29T03:19:19;5.57;;;3.60;;
80494;SDS011;69819;48.798;11.770;2023-05-29T03:21:45;5.65;;;3.67;;
80494;SDS011;69819;48.798;11.770;2023-05-29T03:24:11;4.75;;;3.53;;
80494;SDS011;69819;48.798;11.770;2023-05-29T03:26:41;5.22;;;3.35;;
80494;SDS011;69819;48.798;11.770;2023-05-29T03:29:07;6.88;;;3.85;;
80494;SDS011;69819;48.798;11.770;2023-05-29T03:31:32;5.35;;;3.53;;
80494;SDS011;69819;48.798;11.770;2023-05-29T03:33:59;6.20;;;3.67;;
80494;SDS011;69819;48.798;11.770;2023-05-29T03:36:25;5.45;;;3.35;;
80494;SDS011;69819;48.798;11.770;2023-05-29T03:38:51;5.88;;;3.67;;
80494;SDS011;69819;48.798;11.770;2023-05-29T03:41:17;5.30;;;3.65;;
80494;SDS011;69819;48.798;11.770;2023-05-29T03:43:43;5.45;;;3.55;;
80494;SDS011;69819;48.798;11.770;2023-05-29T03:46:09;6.28;;;3.67;;
80494;SDS011;69819;48.798;11.770;2023-05-29T03:48:34;5.70;;;3.30;;
80494;SDS011;69819;48.798;11.770;2023-05-29T03:51:00;5.57;;;3.42;;
80494;SDS011;69819;48.798;11.770;2023-05-29T03:53:26;5.53;;;3.47;;
80494;SDS011;69819;48.798;11.770;2023-05-29T03:55:52;7.32;;;3.90;;
80494;SDS011;69819;48.798;11.770;2023-05-29T03:58:17;6.90;;;3.28;;
80494;SDS011;69819;48.798;11.770;2023-05-29T04:00:43;5.63;;;3.35;;
80494;SDS011;69819;48.798;11.770;2023-05-29T04:03:09;4.47;;;3.25;;
80494;SDS011;69819;48.798;11.770;2023-05-29T04:05:36;3.80;;;3.03;;
80494;SDS011;69819;48.798;11.770;2023-05-29T04:08:02;7.78;;;3.80;;
80494;SDS011;69819;48.798;11.770;2023-05-29T04:10:29;5.60;;;3.55;;
80494;SDS011;69819;48.798;11.770;2023-05-29T04:12:58;4.63;;;3.55;;
80494;SDS011;69819;48.798;11.770;2023-05-29T04:15:25;3.67;;;3.25;;
80494;SDS011;69819;48.798;11.770;2023-05-29T04:17:53;5.40;;;3.33;;
80494;SDS011;69819;48.798;11.770;2023-05-29T04:20:20;5.25;;;3.75;;
80494;SDS011;69819;48.798;11.770;2023-05-29T04:22:46;6.22;;;4.03;;
80494;SDS011;69819;48.798;11.770;2023-05-29T04:25:12;6.53;;;3.20;;
80494;SDS011;69819;48.798;11.770;2023-05-29T04:27:37;4.40;;;3.25;;
80494;SDS011;69819;48.798;11.770;2023-05-29T04:30:04;5.60;;;3.47;;
80494;SDS011;69819;48.798;11.770;2023-05-29T04:32:31;6.55;;;3.47;;
80494;SDS011;69819;48.798;11.770;2023-05-29T04:34:58;6.88;;;3.42;;
80494;SDS011;69819;48.798;11.770;2023-05-29T04:37:28;5.05;;;3.13;;
80494;SDS011;69819;48.798;11.770;2023-05-29T04:39:55;5.22;;;3.10;;
80494;SDS011;69819;48.798;11.770;2023-05-29T04:42:22;5.20;;;3.22;;
80494;SDS011;69819;48.798;11.770;2023-05-29T04:44:50;7.75;;;3.80;;
80494;SDS011;69819;48.798;11.770;2023-05-29T04:47:19;6.15;;;3.28;;
80494;SDS011;69819;48.798;11.770;2023-05-29T04:49:45;3.83;;;3.20;;
80494;SDS011;69819;48.798;11.770;2023-05-29T04:52:13;4.03;;;3.20;;
80494;SDS011;69819;48.798;11.770;2023-05-29T04:54:41;9.52;;;3.65;;
80494;SDS011;69819;48.798;11.770;2023-05-29T04:57:06;5.85;;;3.35;;
80494;SDS011;69819;48.798;11.770;2023-05-29T04:59:33;4.00;;;3.30;;
80494;SDS011;69819;48.798;11.770;2023-05-29T05:02:00;8.35;;;3.58;;
80494;SDS011;69819;48.798;11.770;2023-05-29T05:04:26;4.75;;;3.53;;
80494;SDS011;69819;48.798;11.770;2023-05-29T05:06:52;4.55;;;3.17;;
80494;SDS011;69819;48.798;11.770;2023-05-29T05:09:18;4.32;;;3.38;;
80494;SDS011;69819;48.798;11.770;2023-05-29T05:11:44;4.30;;;3.28;;
80494;SDS011;69819;48.798;11.770;2023-05-29T05:14:09;7.38;;;3.28;;
80494;SDS011;69819;48.798;11.770;2023-05-29T05:16:35;5.00;;;3.58;;
80494;SDS011;69819;48.798;11.770;2023-05-29T05:19:01;6.30;;;3.53;;
80494;SDS011;69819;48.798;11.770;2023-05-29T05:21:27;4.63;;;3.45;;
80494;SDS011;69819;48.798;11.770;2023-05-29T05:23:55;7.00;;;3.75;;
80494;SDS011;69819;48.798;11.770;2023-05-29T05:26:21;4.75;;;3.60;;
80494;SDS011;69819;48.798;11.770;2023-05-29T05:28:47;7.80;;;3.60;;
80494;SDS011;69819;48.798;11.770;2023-05-29T05:31:13;4.68;;;3.38;;
80494;SDS011;69819;48.798;11.770;2023-05-29T05:33:38;4.05;;;3.45;;
80494;SDS011;69819;48.798;11.770;2023-05-29T05:36:04;3.90;;;3.33;;
80494;SDS011;69819;48.798;11.770;2023-05-29T05:38:31;8.25;;;3.53;;
80494;SDS011;69819;48.798;11.770;2023-05-29T05:40:57;4.15;;;3.13;;
80494;SDS011;69819;48.798;11.770;2023-05-29T05:43:23;4.00;;;3.33;;
80494;SDS011;69819;48.798;11.770;2023-05-29T05:45:51;4.75;;;3.17;;
80494;SDS011;69819;48.798;11.770;2023-05-29T05:48:17;5.88;;;3.38;;
80494;SDS011;69819;48.798;11.770;2023-05-29T05:50:42;4.40;;;3.10;;
80494;SDS011;69819;48.798;11.770;2023-05-29T05:53:08;4.00;;;3.00;;
80494;SDS011;69819;48.798;11.770;2023-05-29T05:55:34;4.93;;;3.22;;
80494;SDS011;69819;48.798;11.770;2023-05-29T05:58:00;4.00;;;3.08;;
80494;SDS011;69819;48.798;11.770;2023-05-29T06:00:25;3.55;;;2.83;;
80494;SDS011;69819;48.798;11.770;2023-05-29T06:02:51;3.67;;;2.88;;
80494;SDS011;69819;48.798;11.770;2023-05-29T06:05:17;7.43;;;3.28;;
80494;SDS011;69819;48.798;11.770;2023-05-29T06:07:43;3.47;;;2.67;;
80494;SDS011;69819;48.798;11.770;2023-05-29T06:10:09;4.63;;;2.83;;
80494;SDS011;69819;48.798;11.770;2023-05-29T06:12:35;4.75;;;3.05;;
80494;SDS011;69819;48.798;11.770;2023-05-29T06:15:01;3.60;;;2.90;;
80494;SDS011;69819;48.798;11.770;2023-05-29T06:17:29;3.08;;;2.60;;
80494;SDS011;69819;48.798;11.770;2023-05-29T06:19:54;4.30;;;2.75;;
80494;SDS011;69819;48.798;11.770;2023-05-29T06:22:20;4.35;;;2.78;;
80494;SDS011;69819;48.798;11.770;2023-05-29T06:24:46;3.70;;;2.90;;
80494;SDS011;69819;48.798;11.770;2023-05-29T06:27:12;4.68;;;2.72;;
80494;SDS011;69819;48.798;11.770;2023-05-29T06:29:37;5.30;;;2.75;;
80494;SDS011;69819;48.798;11.770;2023-05-29T06:32:03;5.40;;;2.38;;
80494;SDS011;69819;48.798;11.770;2023-05-29T06:34:29;2.72;;;2.53;;
80494;SDS011;69819;48.798;11.770;2023-05-29T06:36:55;2.80;;;2.45;;
80494;SDS011;69819;48.798;11.770;2023-05-29T06:39:21;3.53;;;2.67;;
80494;SDS011;69819;48.798;11.770;2023-05-29T06:41:47;4.93;;;2.75;;
80494;SDS011;69819;48.798;11.770;2023-05-29T06:44:13;4.72;;;2.33;;
80494;SDS011;69819;48.798;11.770;2023-05-29T06:46:38;2.97;;;2.40;;
80494;SDS011;69819;48.798;11.770;2023-05-29T06:49:04;2.80;;;2.47;;
80494;SDS011;69819;48.798;11.770;2023-05-29T06:51:30;3.60;;;2.80;;
80494;SDS011;69819;48.798;11.770;2023-05-29T06:53:57;2.88;;;2.53;;
80494;SDS011;69819;48.798;11.770;2023-05-29T06:56:23;2.60;;;2.40;;
80494;SDS011;69819;48.798;11.770;2023-05-29T06:58:49;3.30;;;2.40;;
80494;SDS011;69819;48.798;11.770;2023-05-29T07:01:14;4.15;;;2.60;;
80494;SDS011;69819;48.798;11.770;2023-05-29T07:03:41;2.65;;;2.25;;
80494;SDS011;69819;48.798;11.770;2023-05-29T07:06:08;4.78;;;2.28;;
80494;SDS011;69819;48.798;11.770;2023-05-29T07:08:34;5.68;;;2.65;;
80494;SDS011;69819;48.798;11.770;2023-05-29T07:11:00;2.92;;;2.50;;
80494;SDS011;69819;48.798;11.770;2023-05-29T07:13:27;3.72;;;2.17;;
80494;SDS011;69819;48.798;11.770;2023-05-29T07:15:53;4.47;;;2.35;;
80494;SDS011;69819;48.798;11.770;2023-05-29T07:18:19;3.70;;;2.40;;
80494;SDS011;69819;48.798;11.770;2023-05-29T07:20:45;3.00;;;2.33;;
80494;SDS011;69819;48.798;11.770;2023-05-29T07:23:10;4.20;;;2.50;;
80494;SDS011;69819;48.798;11.770;2023-05-29T07:25:36;3.38;;;2.25;;
80494;SDS011;69819;48.798;11.770;2023-05-29T07:28:02;3.55;;;2.38;;
80494;SDS011;69819;48.798;11.770;2023-05-29T07:30:28;8.40;;;2.40;;
80494;SDS011;69819;48.798;11.770;2023-05-29T07:32:53;2.83;;;2.28;;
80494;SDS011;69819;48.798;11.770;2023-05-29T07:35:19;2.60;;;2.38;;
80494;SDS011;69819;48.798;11.770;2023-05-29T07:37:45;3.28;;;2.33;;
80494;SDS011;69819;48.798;11.770;2023-05-29T07:40:13;3.10;;;2.00;;
80494;SDS011;69819;48.798;11.770;2023-05-29T07:42:38;4.50;;;2.53;;
80494;SDS011;69819;48.798;11.770;2023-05-29T07:45:04;2.95;;;2.47;;
80494;SDS011;69819;48.798;11.770;2023-05-29T07:47:30;2.58;;;1.83;;
80494;SDS011;69819;48.798;11.770;2023-05-29T07:49:56;3.72;;;2.33;;
80494;SDS011;69819;48.798;11.770;2023-05-29T07:52:22;2.95;;;2.20;;
80494;SDS011;69819;48.798;11.770;2023-05-29T07:54:48;3.20;;;2.65;;
80494;SDS011;69819;48.798;11.770;2023-05-29T07:57:13;2.88;;;2.10;;
80494;SDS011;69819;48.798;11.770;2023-05-29T07:59:42;4.13;;;2.58;;
80494;SDS011;69819;48.798;11.770;2023-05-29T08:02:08;2.53;;;2.20;;
80494;SDS011;69819;48.798;11.770;2023-05-29T08:04:35;3.97;;;2.45;;
80494;SDS011;69819;48.798;11.770;2023-05-29T08:07:01;3.20;;;2.30;;
80494;SDS011;69819;48.798;11.770;2023-05-29T08:09:30;4.68;;;2.53;;
80494;SDS011;69819;48.798;11.770;2023-05-29T08:11:56;3.38;;;2.42;;
80494;SDS011;69819;48.798;11.770;2023-05-29T08:14:22;4.60;;;2.47;;
80494;SDS011;69819;48.798;11.770;2023-05-29T08:16:48;2.97;;;2.30;;
80494;SDS011;69819;48.798;11.770;2023-05-29T08:19:15;3.03;;;2.38;;
80494;SDS011;69819;48.798;11.770;2023-05-29T08:21:41;3.83;;;2.47;;
80494;SDS011;69819;48.798;11.770;2023-05-29T08:24:07;3.33;;;2.30;;
80494;SDS011;69819;48.798;11.770;2023-05-29T08:26:34;2.47;;;2.25;;
80494;SDS011;69819;48.798;11.770;2023-05-29T08:29:00;2.97;;;2.03;;
80494;SDS011;69819;48.798;11.770;2023-05-29T08:31:26;3.33;;;2.25;;
80494;SDS011;69819;48.798;11.770;2023-05-29T08:33:53;3.35;;;2.13;;
80494;SDS011;69819;48.798;11.770;2023-05-29T08:36:19;4.60;;;2.80;;
80494;SDS011;69819;48.798;11.770;2023-05-29T08:38:48;2.63;;;2.42;;
80494;SDS011;69819;48.798;11.770;2023-05-29T08:41:19;3.95;;;2.20;;
80494;SDS011;69819;48.798;11.770;2023-05-29T08:44:13;4.05;;;2.20;;
80494;SDS011;69819;48.798;11.770;2023-05-29T08:46:41;2.85;;;2.17;;
80494;SDS011;69819;48.798;11.770;2023-05-29T08:49:10;2.22;;;2.03;;
80494;SDS011;69819;48.798;11.770;2023-05-29T08:51:41;3.55;;;2.30;;
80494;SDS011;69819;48.798;11.770;2023-05-29T08:54:11;3.58;;;2.42;;
80494;SDS011;69819;48.798;11.770;2023-05-29T08:56:39;3.45;;;2.63;;
80494;SDS011;69819;48.798;11.770;2023-05-29T08:59:05;2.47;;;2.00;;
80494;SDS011;69819;48.798;11.770;2023-05-29T09:01:33;2.88;;;2.30;;
80494;SDS011;69819;48.798;11.770;2023-05-29T09:04:00;5.03;;;2.58;;
80494;SDS011;69819;48.798;11.770;2023-05-29T09:06:27;2.47;;;2.20;;
80494;SDS011;69819;48.798;11.770;2023-05-29T09:08:53;2.50;;;2.17;;
80494;SDS011;69819;48.798;11.770;2023-05-29T09:11:19;3.05;;;2.33;;
80494;SDS011;69819;48.798;11.770;2023-05-29T09:13:46;2.65;;;2.17;;
80494;SDS011;69819;48.798;11.770;2023-05-29T09:16:12;3.10;;;2.40;;
80494;SDS011;69819;48.798;11.770;2023-05-29T09:18:40;4.45;;;2.65;;
80494;SDS011;69819;48.798;11.770;2023-05-29T09:21:10;3.08;;;2.78;;
80494;SDS011;69819;48.798;11.770;2023-05-29T09:23:51;5.82;;;2.90;;
80494;SDS011;69819;48.798;11.770;2023-05-29T09:26:20;4.25;;;2.30;;
80494;SDS011;69819;48.798;11.770;2023-05-29T09:28:49;3.25;;;2.55;;
80494;SDS011;69819;48.798;11.770;2023-05-29T09:31:15;9.45;;;8.18;;
80494;SDS011;69819;48.798;11.770;2023-05-29T09:33:47;3.83;;;3.30;;
80494;SDS011;69819;48.798;11.770;2023-05-29T09:36:21;7.55;;;6.85;;
80494;SDS011;69819;48.798;11.770;2023-05-29T09:38:47;3.38;;;3.00;;
80494;SDS011;69819;48.798;11.770;2023-05-29T09:41:13;2.92;;;2.22;;
80494;SDS011;69819;48.798;11.770;2023-05-29T09:43:48;3.13;;;2.67;;
80494;SDS011;69819;48.798;11.770;2023-05-29T09:46:19;3.58;;;2.20;;
80494;SDS011;69819;48.798;11.770;2023-05-29T09:48:45;4.03;;;2.50;;
80494;SDS011;69819;48.798;11.770;2023-05-29T09:51:19;5.43;;;3.72;;
80494;SDS011;69819;48.798;11.770;2023-05-29T09:53:49;3.60;;;3.20;;
80494;SDS011;69819;48.798;11.770;2023-05-29T09:56:18;3.88;;;3.53;;
80494;SDS011;69819;48.798;11.770;2023-05-29T09:58:50;5.32;;;3.80;;
80494;SDS011;69819;48.798;11.770;2023-05-29T10:01:18;3.30;;;2.25;;
80494;SDS011;69819;48.798;11.770;2023-05-29T10:03:45;3.53;;;2.55;;
80494;SDS011;69819;48.798;11.770;2023-05-29T10:06:11;3.35;;;2.53;;
80494;SDS011;69819;48.798;11.770;2023-05-29T10:08:45;3.00;;;2.17;;
80494;SDS011;69819;48.798;11.770;2023-05-29T10:11:16;3.13;;;2.58;;
80494;SDS011;69819;48.798;11.770;2023-05-29T10:13:48;4.13;;;2.53;;
80494;SDS011;69819;48.798;11.770;2023-05-29T10:16:16;2.90;;;2.50;;
80494;SDS011;69819;48.798;11.770;2023-05-29T10:18:49;3.15;;;2.38;;
80494;SDS011;69819;48.798;11.770;2023-05-29T10:21:20;5.65;;;2.60;;
80494;SDS011;69819;48.798;11.770;2023-05-29T10:23:48;2.40;;;2.20;;
80494;SDS011;69819;48.798;11.770;2023-05-29T10:26:18;3.42;;;2.08;;
80494;SDS011;69819;48.798;11.770;2023-05-29T10:42:49;4.15;;;2.60;;
80494;SDS011;69819;48.798;11.770;2023-05-29T10:53:16;3.75;;;2.53;;
80494;SDS011;69819;48.798;11.770;2023-05-29T10:55:47;3.63;;;2.33;;
80494;SDS011;69819;48.798;11.770;2023-05-29T10:58:19;4.05;;;2.47;;
80494;SDS011;69819;48.798;11.770;2023-05-29T11:00:50;3.42;;;2.15;;
80494;SDS011;69819;48.798;11.770;2023-05-29T11:03:25;3.10;;;2.70;;
80494;SDS011;69819;48.798;11.770;2023-05-29T11:05:56;3.13;;;2.25;;
80494;SDS011;69819;48.798;11.770;2023-05-29T11:11:31;4.65;;;2.30;;
80494;SDS011;69819;48.798;11.770;2023-05-29T11:14:01;4.53;;;2.15;;
80494;SDS011;69819;48.798;11.770;2023-05-29T11:18:55;2.45;;;2.22;;
80494;SDS011;69819;48.798;11.770;2023-05-29T11:24:06;3.28;;;2.25;;
80494;SDS011;69819;48.798;11.770;2023-05-29T11:26:32;3.28;;;2.35;;
80494;SDS011;69819;48.798;11.770;2023-05-29T11:29:05;4.40;;;2.42;;
80494;SDS011;69819;48.798;11.770;2023-05-29T11:31:35;3.70;;;2.35;;
80494;SDS011;69819;48.798;11.770;2023-05-29T11:34:04;3.78;;;2.55;;
80494;SDS011;69819;48.798;11.770;2023-05-29T11:36:35;3.42;;;2.22;;
80494;SDS011;69819;48.798;11.770;2023-05-29T11:39:03;4.43;;;2.58;;
80494;SDS011;69819;48.798;11.770;2023-05-29T11:41:29;5.05;;;2.50;;
80494;SDS011;69819;48.798;11.770;2023-05-29T11:44:02;4.60;;;2.80;;
80494;SDS011;69819;48.798;11.770;2023-05-29T11:46:32;4.30;;;2.25;;
80494;SDS011;69819;48.798;11.770;2023-05-29T11:48:59;4.30;;;2.60;;
80494;SDS011;69819;48.798;11.770;2023-05-29T11:51:25;3.10;;;2.25;;
80494;SDS011;69819;48.798;11.770;2023-05-29T11:53:52;3.08;;;2.30;;
80494;SDS011;69819;48.798;11.770;2023-05-29T11:56:23;2.90;;;2.50;;
80494;SDS011;69819;48.798;11.770;2023-05-29T11:58:53;2.50;;;2.30;;
80494;SDS011;69819;48.798;11.770;2023-05-29T12:01:21;2.30;;;2.10;;
80494;SDS011;69819;48.798;11.770;2023-05-29T12:03:49;2.90;;;2.28;;
80494;SDS011;69819;48.798;11.770;2023-05-29T12:06:16;2.50;;;2.20;;
80494;SDS011;69819;48.798;11.770;2023-05-29T12:08:56;3.58;;;2.25;;
80494;SDS011;69819;48.798;11.770;2023-05-29T12:11:24;3.30;;;2.50;;
80494;SDS011;69819;48.798;11.770;2023-05-29T12:14:00;3.13;;;2.38;;
80494;SDS011;69819;48.798;11.770;2023-05-29T12:16:27;2.50;;;2.13;;
80494;SDS011;69819;48.798;11.770;2023-05-29T12:18:57;2.55;;;1.90;;
80494;SDS011;69819;48.798;11.770;2023-05-29T12:21:23;4.32;;;2.50;;
80494;SDS011;69819;48.798;11.770;2023-05-29T12:23:53;2.50;;;2.30;;
80494;SDS011;69819;48.798;11.770;2023-05-29T12:26:23;2.60;;;2.40;;
80494;SDS011;69819;48.798;11.770;2023-05-29T12:28:50;4.13;;;1.90;;
80494;SDS011;69819;48.798;11.770;2023-05-29T12:31:29;2.40;;;2.20;;
80494;SDS011;69819;48.798;11.770;2023-05-29T12:34:00;3.90;;;2.10;;
80494;SDS011;69819;48.798;11.770;2023-05-29T12:36:27;4.32;;;2.47;;
80494;SDS011;69819;48.798;11.770;2023-05-29T12:38:53;2.38;;;2.15;;
80494;SDS011;69819;48.798;11.770;2023-05-29T12:43:52;2.28;;;1.88;;
80494;SDS011;69819;48.798;11.770;2023-05-29T12:46:23;3.55;;;2.20;;
80494;SDS011;69819;48.798;11.770;2023-05-29T12:48:52;3.78;;;2.78;;
80494;SDS011;69819;48.798;11.770;2023-05-29T12:51:26;3.42;;;2.13;;
80494;SDS011;69819;48.798;11.770;2023-05-29T12:53:52;3.67;;;2.45;;
80494;SDS011;69819;48.798;11.770;2023-05-29T12:56:22;2.58;;;2.35;;
80494;SDS011;69819;48.798;11.770;2023-05-29T12:58:51;4.20;;;2.10;;
80494;SDS011;69819;48.798;11.770;2023-05-29T13:01:17;3.20;;;2.30;;
80494;SDS011;69819;48.798;11.770;2023-05-29T13:03:43;2.10;;;1.80;;
80494;SDS011;69819;48.798;11.770;2023-05-29T13:06:10;3.75;;;2.17;;
80494;SDS011;69819;48.798;11.770;2023-05-29T13:08:36;4.18;;;2.30;;
80494;SDS011;69819;48.798;11.770;2023-05-29T13:11:02;4.80;;;2.05;;
80494;SDS011;69819;48.798;11.770;2023-05-29T13:13:28;4.53;;;2.03;;
80494;SDS011;69819;48.798;11.770;2023-05-29T13:15:54;2.58;;;1.85;;
80494;SDS011;69819;48.798;11.770;2023-05-29T13:18:20;2.38;;;2.00;;
80494;SDS011;69819;48.798;11.770;2023-05-29T13:20:45;3.65;;;2.00;;
80494;SDS011;69819;48.798;11.770;2023-05-29T13:23:12;3.40;;;2.25;;
80494;SDS011;69819;48.798;11.770;2023-05-29T13:25:37;2.28;;;2.05;;
80494;SDS011;69819;48.798;11.770;2023-05-29T13:28:03;3.45;;;2.10;;
80494;SDS011;69819;48.798;11.770;2023-05-29T13:30:29;2.72;;;1.80;;
80494;SDS011;69819;48.798;11.770;2023-05-29T13:32:55;2.42;;;2.10;;
80494;SDS011;69819;48.798;11.770;2023-05-29T13:35:21;4.97;;;2.00;;
80494;SDS011;69819;48.798;11.770;2023-05-29T13:37:46;2.42;;;1.80;;
80494;SDS011;69819;48.798;11.770;2023-05-29T13:40:12;2.60;;;2.28;;
80494;SDS011;69819;48.798;11.770;2023-05-29T13:42:39;3.08;;;2.17;;
80494;SDS011;69819;48.798;11.770;2023-05-29T13:45:05;2.45;;;2.15;;
80494;SDS011;69819;48.798;11.770;2023-05-29T13:47:32;2.28;;;1.98;;
80494;SDS011;69819;48.798;11.770;2023-05-29T13:49:59;3.20;;;2.20;;
80494;SDS011;69819;48.798;11.770;2023-05-29T13:52:25;2.58;;;2.15;;
80494;SDS011;69819;48.798;11.770;2023-05-29T13:54:51;4.10;;;1.92;;
80494;SDS011;69819;48.798;11.770;2023-05-29T13:57:17;3.85;;;2.17;;
80494;SDS011;69819;48.798;11.770;2023-05-29T13:59:43;2.83;;;2.50;;
80494;SDS011;69819;48.798;11.770;2023-05-29T14:02:09;3.30;;;2.00;;
80494;SDS011;69819;48.798;11.770;2023-05-29T14:04:36;3.17;;;2.30;;
80494;SDS011;69819;48.798;11.770;2023-05-29T14:07:03;2.47;;;2.17;;
80494;SDS011;69819;48.798;11.770;2023-05-29T14:09:30;4.75;;;2.33;;
80494;SDS011;69819;48.798;11.770;2023-05-29T14:11:57;2.55;;;1.92;;
80494;SDS011;69819;48.798;11.770;2023-05-29T14:14:24;2.55;;;2.08;;
80494;SDS011;69819;48.798;11.770;2023-05-29T14:16:51;3.25;;;2.05;;
80494;SDS011;69819;48.798;11.770;2023-05-29T14:19:19;2.15;;;1.92;;
80494;SDS011;69819;48.798;11.770;2023-05-29T14:21:45;3.20;;;2.30;;
80494;SDS011;69819;48.798;11.770;2023-05-29T14:24:11;2.40;;;1.85;;
80494;SDS011;69819;48.798;11.770;2023-05-29T14:26:38;2.47;;;2.00;;
80494;SDS011;69819;48.798;11.770;2023-05-29T14:29:04;2.70;;;2.00;;
80494;SDS011;69819;48.798;11.770;2023-05-29T14:31:31;2.55;;;2.10;;
80494;SDS011;69819;48.798;11.770;2023-05-29T14:33:56;2.30;;;2.10;;
80494;SDS011;69819;48.798;11.770;2023-05-29T14:36:22;2.47;;;2.03;;
80494;SDS011;69819;48.798;11.770;2023-05-29T14:38:48;2.30;;;2.10;;
80494;SDS011;69819;48.798;11.770;2023-05-29T14:41:14;2.53;;;2.00;;
80494;SDS011;69819;48.798;11.770;2023-05-29T14:43:41;3.50;;;2.13;;
80494;SDS011;69819;48.798;11.770;2023-05-29T14:46:08;2.75;;;2.10;;
80494;SDS011;69819;48.798;11.770;2023-05-29T14:48:34;2.85;;;2.00;;
80494;SDS011;69819;48.798;11.770;2023-05-29T14:51:00;2.53;;;1.77;;
80494;SDS011;69819;48.798;11.770;2023-05-29T14:53:26;4.30;;;2.20;;
80494;SDS011;69819;48.798;11.770;2023-05-29T14:55:53;3.83;;;2.33;;
80494;SDS011;69819;48.798;11.770;2023-05-29T14:58:20;3.42;;;2.30;;
80494;SDS011;69819;48.798;11.770;2023-05-29T15:00:47;3.05;;;1.80;;
80494;SDS011;69819;48.798;11.770;2023-05-29T15:03:12;3.03;;;1.90;;
80494;SDS011;69819;48.798;11.770;2023-05-29T15:05:38;2.53;;;2.10;;
80494;SDS011;69819;48.798;11.770;2023-05-29T15:08:04;2.47;;;2.13;;
80494;SDS011;69819;48.798;11.770;2023-05-29T15:10:30;4.25;;;2.38;;
80494;SDS011;69819;48.798;11.770;2023-05-29T15:12:57;2.40;;;2.00;;
80494;SDS011;69819;48.798;11.770;2023-05-29T15:15:23;2.13;;;1.92;;
80494;SDS011;69819;48.798;11.770;2023-05-29T15:17:51;3.28;;;2.30;;
80494;SDS011;69819;48.798;11.770;2023-05-29T15:20:21;2.60;;;2.33;;